Time;durP1;ratioP1;P1;durP2;ratioP2;P2;SDS_P1;SDS_P2;PMS_P1;PMS_P2;Temp;Humidity;BMP_temperature;BMP_pressure;BME280_temperature;BME280_humidity;BME280_pressure;Samples;Min_cycle;Max_cycle;Signal;HPM_P1;HPM_P2
2023/12/05 00:01:18;;;;;;;40.20;15.23;;;-3.80;73.40;;;;;;4928533;28;19926;-78
2023/12/05 00:03:46;;;;;;;44.17;15.27;;;-3.70;73.40;;;;;;4941572;28;20074;-77
2023/12/05 00:06:16;;;;;;;37.90;14.48;;;-3.70;73.30;;;;;;4937153;28;20512;-77
2023/12/05 00:08:44;;;;;;;44.67;15.57;;;-3.80;73.40;;;;;;5015134;28;20116;-77
2023/12/05 00:11:12;;;;;;;33.03;13.85;;;-3.80;73.70;;;;;;4988253;28;20049;-77
2023/12/05 00:13:45;;;;;;;33.20;14.18;;;-3.70;73.50;;;;;;5032472;28;20072;-78
2023/12/05 00:16:16;;;;;;;34.38;14.00;;;-3.60;73.60;;;;;;4993879;28;20054;-77
2023/12/05 00:18:47;;;;;;;38.92;14.77;;;-3.60;73.00;;;;;;4989722;28;20049;-75
2023/12/05 00:21:24;;;;;;;35.00;14.25;;;-3.60;73.00;;;;;;5022252;28;20049;-77
2023/12/05 00:24:12;;;;;;;32.50;14.50;;;-3.60;73.10;;;;;;4998050;28;20102;-77
2023/12/05 00:26:55;;;;;;;34.75;14.07;;;-3.60;73.10;;;;;;4786507;29;20070;-77
2023/12/05 00:29:36;;;;;;;34.85;13.93;;;-3.70;72.80;;;;;;4721487;30;20063;-77
2023/12/05 00:38:26;;;;;;;40.55;14.98;;;-3.60;72.70;;;;;;5165123;27;20226;-77
2023/12/05 00:45:46;;;;;;;;;;;;;;;;;;;;;
2023/12/05 00:59:08;;;;;;;35.30;15.07;;;-3.60;72.80;;;;;;4791775;29;20050;-81
2023/12/05 01:01:35;;;;;;;30.77;15.07;;;-3.70;72.80;;;;;;4845459;29;20519;-79
2023/12/05 01:04:03;;;;;;;38.17;15.10;;;-3.60;72.90;;;;;;4895822;29;20060;-80
2023/12/05 01:06:31;;;;;;;36.15;15.65;;;-3.60;72.80;;;;;;4929744;29;20161;-80
2023/12/05 01:08:58;;;;;;;31.52;14.48;;;-3.60;72.80;;;;;;4928595;29;20069;-80
2023/12/05 01:11:26;;;;;;;34.45;15.98;;;-3.60;73.20;;;;;;4928209;29;20062;-79
2023/12/05 01:13:55;;;;;;;36.50;17.00;;;-3.60;73.10;;;;;;4925680;29;20043;-79
2023/12/05 01:16:24;;;;;;;36.78;16.77;;;-3.50;72.80;;;;;;4912795;29;20067;-80
2023/12/05 01:18:51;;;;;;;41.80;16.90;;;-3.50;72.50;;;;;;4928594;29;20059;-80
2023/12/05 01:21:20;;;;;;;36.20;16.02;;;-3.50;72.80;;;;;;4929546;29;20072;-80
2023/12/05 01:23:48;;;;;;;45.50;18.10;;;-3.50;72.80;;;;;;4928088;29;20067;-80
2023/12/05 01:26:15;;;;;;;38.60;18.33;;;-3.50;72.60;;;;;;4912185;29;20054;-80
2023/12/05 01:28:43;;;;;;;43.72;18.98;;;-3.50;72.60;;;;;;4912874;29;20096;-79
2023/12/05 01:31:12;;;;;;;38.85;17.35;;;-3.50;72.40;;;;;;4911946;29;20547;-80
2023/12/05 01:33:43;;;;;;;43.53;18.48;;;-3.50;72.80;;;;;;4944930;29;20099;-81
2023/12/05 01:36:41;;;;;;;43.90;18.83;;;-3.50;73.00;;;;;;4943307;29;20052;-81
2023/12/05 01:39:34;;;;;;;51.22;18.23;;;-3.40;72.60;;;;;;4930964;29;20051;-81
2023/12/05 01:42:03;;;;;;;47.53;18.27;;;-3.40;72.60;;;;;;4931699;29;20568;-81
2023/12/05 01:44:34;;;;;;;41.33;17.50;;;-3.40;72.40;;;;;;4913776;29;20159;-78
2023/12/05 01:47:04;;;;;;;43.85;18.50;;;-3.50;72.20;;;;;;4939952;28;20051;-78
2023/12/05 01:49:34;;;;;;;39.95;17.65;;;-3.50;72.30;;;;;;5002378;28;20065;-77
2023/12/05 01:52:03;;;;;;;41.25;16.85;;;-3.50;72.30;;;;;;5013133;28;20065;-78
2023/12/05 01:54:38;;;;;;;39.47;17.25;;;-3.60;72.30;;;;;;4995458;28;20042;-78
2023/12/05 01:57:13;;;;;;;35.28;15.93;;;-3.60;72.40;;;;;;5010290;28;20054;-77
2023/12/05 01:59:54;;;;;;;40.30;16.00;;;-3.60;72.40;;;;;;5018530;28;20537;-78
2023/12/05 02:02:31;;;;;;;42.58;17.42;;;-3.70;72.50;;;;;;5000047;28;20046;-79
2023/12/05 02:05:08;;;;;;;39.47;16.07;;;-3.70;72.60;;;;;;4999112;28;20156;-79
2023/12/05 02:07:42;;;;;;;37.03;16.08;;;-3.60;73.50;;;;;;5009472;28;20116;-77
2023/12/05 02:10:12;;;;;;;34.88;16.70;;;-3.60;72.60;;;;;;4972449;28;20062;-77
2023/12/05 02:12:41;;;;;;;42.53;16.70;;;-3.50;72.60;;;;;;5003438;28;20050;-77
2023/12/05 02:15:13;;;;;;;42.30;17.58;;;-3.50;72.40;;;;;;4994908;28;20045;-77
2023/12/05 02:18:01;;;;;;;40.28;16.65;;;-3.40;72.20;;;;;;4998958;28;20049;-77
2023/12/05 02:20:40;;;;;;;38.70;16.67;;;-3.40;72.10;;;;;;4977181;28;20545;-77
2023/12/05 02:23:52;;;;;;;35.83;15.05;;;-3.50;72.00;;;;;;4975843;28;20520;-77
2023/12/05 02:26:29;;;;;;;30.88;14.10;;;-3.60;72.00;;;;;;4995464;28;20057;-77
2023/12/05 02:28:58;;;;;;;35.65;16.10;;;-3.60;72.30;;;;;;5006157;28;20049;-76
2023/12/05 02:31:26;;;;;;;40.20;15.65;;;-3.50;72.40;;;;;;5029445;28;20141;-78
2023/12/05 02:33:54;;;;;;;36.92;15.95;;;-3.50;72.30;;;;;;4993794;28;20128;-78
2023/12/05 02:36:33;;;;;;;37.47;14.80;;;-3.40;72.00;;;;;;5011840;28;20054;-80
2023/12/05 02:39:18;;;;;;;33.22;14.02;;;-3.50;71.60;;;;;;4972733;28;20046;-79
2023/12/05 02:41:53;;;;;;;32.25;14.52;;;-3.50;71.90;;;;;;4993964;28;20570;-79
2023/12/05 02:44:25;;;;;;;31.63;12.90;;;-3.50;71.90;;;;;;5003777;28;20132;-79
2023/12/05 02:46:54;;;;;;;32.83;13.77;;;-3.50;71.80;;;;;;5015113;28;20077;-80
2023/12/05 02:49:26;;;;;;;31.10;13.52;;;-3.60;71.60;;;;;;4995953;28;20080;-80
2023/12/05 02:51:54;;;;;;;27.73;13.80;;;-3.60;71.80;;;;;;5033888;28;20454;-81
2023/12/05 02:54:22;;;;;;;35.55;14.77;;;-3.60;72.20;;;;;;5016123;28;20055;-79
2023/12/05 02:56:59;;;;;;;34.30;15.15;;;-3.60;72.30;;;;;;5016432;28;20059;-79
2023/12/05 02:59:30;;;;;;;36.65;14.68;;;-3.60;72.30;;;;;;4999270;28;20049;-79
2023/12/05 03:14:28;;;;;;;33.08;15.38;;;-3.80;72.10;;;;;;4838158;29;20577;-80
2023/12/05 03:16:56;;;;;;;41.90;16.15;;;-3.60;72.70;;;;;;4926688;28;20431;-79
2023/12/05 03:19:24;;;;;;;35.80;14.68;;;-3.50;72.40;;;;;;4995776;28;20081;-81
2023/12/05 03:21:55;;;;;;;36.20;16.05;;;-3.60;72.10;;;;;;5015162;28;20053;-79
2023/12/05 03:27:19;;;;;;;33.22;14.68;;;-3.60;72.60;;;;;;4996948;28;20518;-80
2023/12/05 03:29:56;;;;;;;33.13;15.10;;;-3.60;72.80;;;;;;4997586;28;20084;-80
2023/12/05 03:32:28;;;;;;;32.88;14.65;;;-3.50;72.80;;;;;;5014975;28;20069;-81
2023/12/05 03:34:58;;;;;;;33.20;15.45;;;-3.60;72.60;;;;;;5014845;28;20147;-79
2023/12/05 03:37:33;;;;;;;34.53;15.57;;;-3.60;72.50;;;;;;4997879;28;20064;-81
2023/12/05 03:40:54;;;;;;;29.77;14.93;;;-3.50;72.40;;;;;;5009888;28;20056;-80
2023/12/05 03:44:00;;;;;;;33.42;15.35;;;-3.60;72.30;;;;;;4971558;28;20078;-80
2023/12/05 03:46:30;;;;;;;30.50;13.80;;;-3.50;72.60;;;;;;5008734;28;20080;-81
2023/12/05 03:49:11;;;;;;;31.33;14.07;;;-3.40;72.20;;;;;;5047964;28;20095;-81
2023/12/05 03:51:44;;;;;;;36.85;14.85;;;-3.50;71.70;;;;;;5016224;28;20057;-80
2023/12/05 03:54:29;;;;;;;36.88;14.85;;;-3.40;72.00;;;;;;5032249;28;20053;-80
2023/12/05 03:57:16;;;;;;;34.50;15.77;;;-3.40;71.90;;;;;;5030831;28;20137;-78
2023/12/05 03:59:59;;;;;;;29.13;14.07;;;-3.40;71.90;;;;;;5030433;28;20053;-79
2023/12/05 04:02:52;;;;;;;37.30;15.43;;;-3.50;71.90;;;;;;5021036;28;20049;-81
2023/12/05 04:05:30;;;;;;;34.08;14.80;;;-3.40;71.90;;;;;;5044584;28;20079;-78
2023/12/05 04:08:08;;;;;;;32.58;15.43;;;-3.40;71.70;;;;;;5048260;28;20106;-78
2023/12/05 04:10:41;;;;;;;35.55;15.73;;;-3.40;71.70;;;;;;5021937;28;20048;-78
2023/12/05 04:13:28;;;;;;;32.65;15.23;;;-3.40;71.50;;;;;;5046984;28;20045;-81
2023/12/05 04:16:23;;;;;;;29.80;13.85;;;-3.40;71.60;;;;;;5047878;28;20148;-79
2023/12/05 04:19:40;;;;;;;31.33;14.38;;;-3.40;71.40;;;;;;5040315;28;20060;-78
2023/12/05 04:26:54;;;;;;;;;;;;;;;;;;;;;
2023/12/05 04:29:53;;;;;;;52.78;19.90;;;-3.30;71.60;;;;;;5046349;28;20056;-76
2023/12/05 04:33:03;;;;;;;;;;;;;;;;;;;;;
2023/12/05 04:36:22;;;;;;;;;;;;;;;;;;;;;
2023/12/05 04:39:54;;;;;;;66.85;22.95;;;-3.20;71.20;;;;;;5019253;28;20076;-76
2023/12/05 04:42:45;;;;;;;63.22;26.77;;;-3.30;70.50;;;;;;5034244;28;20048;-77
2023/12/05 04:45:46;;;;;;;;;;;;;;;;;;;;;
2023/12/05 04:48:40;;;;;;;71.25;25.63;;;-3.20;70.80;;;;;;5056679;28;20079;-77
2023/12/05 04:51:37;;;;;;;60.03;25.42;;;-3.20;70.50;;;;;;5042635;28;20048;-78
2023/12/05 04:54:19;;;;;;;74.10;29.10;;;-3.40;70.60;;;;;;5006854;28;20554;-79
2023/12/05 04:56:52;;;;;;;68.10;26.17;;;-3.40;71.20;;;;;;5014862;28;20596;-78
2023/12/05 04:59:23;;;;;;;69.53;24.67;;;-3.30;70.70;;;;;;4974624;28;20059;-80
2023/12/05 05:01:56;;;;;;;64.88;23.92;;;-3.40;70.60;;;;;;4980750;28;20060;-79
2023/12/05 05:04:23;;;;;;;62.67;25.05;;;-3.40;70.40;;;;;;4877377;29;20058;-78
2023/12/05 05:06:53;;;;;;;68.15;24.58;;;-3.40;70.40;;;;;;4843480;29;20074;-80
2023/12/05 05:09:20;;;;;;;76.72;26.80;;;-3.40;70.30;;;;;;4835233;29;20054;-81
2023/12/05 05:11:48;;;;;;;69.15;26.60;;;-3.40;70.00;;;;;;4832920;29;20595;-80
2023/12/05 05:14:18;;;;;;;69.72;26.63;;;-3.50;70.10;;;;;;4796362;29;20062;-80
2023/12/05 05:16:50;;;;;;;71.10;25.42;;;-3.50;70.10;;;;;;4802205;29;20090;-81
2023/12/05 05:19:18;;;;;;;63.08;26.23;;;-3.50;70.30;;;;;;4767152;29;20062;-82
2023/12/05 05:22:15;;;;;;;67.20;25.52;;;-3.50;70.50;;;;;;4780261;29;20058;-83
2023/12/05 05:24:43;;;;;;;72.65;23.67;;;-3.50;70.40;;;;;;4822653;29;20058;-82
2023/12/05 05:27:11;;;;;;;80.90;25.30;;;-3.50;70.20;;;;;;4740276;29;20522;-82
2023/12/05 05:51:40;;;;;;;;;;;;;;;;;;;;;
2023/12/05 05:54:20;;;;;;;109.80;32.28;;;-3.40;70.40;;;;;;5849949;24;20026;-83
2023/12/05 05:56:51;;;;;;;106.40;33.97;;;-3.30;70.40;;;;;;6045246;23;20096;-82
2023/12/05 05:59:49;;;;;;;107.05;32.88;;;-3.30;70.00;;;;;;6136463;23;20021;-83
2023/12/05 06:02:19;;;;;;;101.93;34.38;;;-3.20;70.10;;;;;;6135352;23;20018;-82
2023/12/05 06:04:46;;;;;;;104.97;35.90;;;-3.20;69.90;;;;;;6135177;23;20065;-83
2023/12/05 06:07:14;;;;;;;101.80;36.65;;;-3.20;69.70;;;;;;6136479;23;20068;-82
2023/12/05 06:09:42;;;;;;;108.50;33.78;;;-3.10;69.70;;;;;;6135357;23;20025;-82
2023/12/05 06:12:11;;;;;;;109.93;34.10;;;-3.20;69.40;;;;;;6109339;23;20025;-80
2023/12/05 06:14:40;;;;;;;96.07;29.55;;;-3.20;69.70;;;;;;6133694;23;20029;-81
2023/12/05 06:17:08;;;;;;;100.47;30.73;;;-3.20;69.60;;;;;;6109459;23;20021;-82
2023/12/05 06:19:39;;;;;;;99.18;32.40;;;-3.30;69.70;;;;;;6158873;23;20025;-81
2023/12/05 06:22:07;;;;;;;98.32;33.05;;;-3.30;70.10;;;;;;6133969;23;20021;-82
2023/12/05 06:24:36;;;;;;;117.32;34.95;;;-3.30;70.10;;;;;;6108705;23;20056;-82
2023/12/05 06:27:05;;;;;;;103.93;32.80;;;-3.30;70.10;;;;;;6132407;23;20032;-82
2023/12/05 06:29:33;;;;;;;108.28;35.83;;;-3.30;70.00;;;;;;6107113;23;20033;-82
2023/12/05 06:32:01;;;;;;;115.80;32.75;;;-3.30;70.00;;;;;;6131359;23;20026;-83
2023/12/05 06:34:28;;;;;;;119.63;32.63;;;-3.30;69.70;;;;;;6131030;23;20026;-82
2023/12/05 06:36:58;;;;;;;118.60;33.53;;;-3.40;69.90;;;;;;6130743;23;20428;-80
2023/12/05 06:39:27;;;;;;;105.43;31.85;;;-3.30;70.10;;;;;;6132941;23;20460;-81
2023/12/05 06:41:57;;;;;;;107.70;32.28;;;-3.10;70.20;;;;;;6133096;23;20022;-79
2023/12/05 06:44:25;;;;;;;95.45;31.63;;;-3.10;69.70;;;;;;6133139;23;20028;-81
2023/12/05 06:46:53;;;;;;;87.95;28.23;;;-3.10;69.30;;;;;;6127888;23;20022;-82
2023/12/05 06:49:23;;;;;;;86.00;30.42;;;-3.20;69.00;;;;;;6125514;23;20105;-82
2023/12/05 06:51:56;;;;;;;94.03;31.40;;;-3.30;69.10;;;;;;6124545;23;20037;-80
2023/12/05 06:54:26;;;;;;;94.18;32.03;;;-3.30;69.10;;;;;;6099851;23;20042;-82
2023/12/05 06:56:53;;;;;;;99.75;34.38;;;-3.20;69.30;;;;;;6124137;23;20037;-82
2023/12/05 06:59:21;;;;;;;94.95;33.63;;;-3.20;69.20;;;;;;6123324;23;20458;-80
2023/12/05 07:01:50;;;;;;;85.70;30.85;;;-3.20;69.00;;;;;;6123817;23;20113;-82
2023/12/05 07:04:18;;;;;;;98.55;31.75;;;-3.20;69.30;;;;;;6101232;23;20022;-82
2023/12/05 07:06:46;;;;;;;96.00;33.88;;;-3.20;69.20;;;;;;6126330;23;20053;-81
2023/12/05 07:09:14;;;;;;;102.78;35.67;;;-3.20;69.20;;;;;;6100395;23;20032;-82
2023/12/05 07:11:45;;;;;;;86.45;31.85;;;-3.10;69.50;;;;;;6124998;23;20086;-83
2023/12/05 07:14:13;;;;;;;100.07;35.17;;;-3.10;69.30;;;;;;6099515;23;20021;-81
2023/12/05 07:16:41;;;;;;;110.85;35.47;;;-3.10;69.40;;;;;;6125657;23;20044;-82
2023/12/05 07:19:09;;;;;;;108.40;34.75;;;-3.00;69.20;;;;;;6125947;23;20026;-81
2023/12/05 07:21:37;;;;;;;88.00;29.85;;;-3.10;69.00;;;;;;6126031;23;20022;-81
2023/12/05 07:24:08;;;;;;;96.75;33.72;;;-3.10;69.50;;;;;;6124354;23;20447;-82
2023/12/05 07:26:36;;;;;;;85.57;30.77;;;-3.10;69.80;;;;;;6123734;23;20030;-81
2023/12/05 07:29:15;;;;;;;65.38;25.48;;;-3.20;70.00;;;;;;6123784;23;20022;-82
2023/12/05 07:31:45;;;;;;;63.97;24.55;;;-3.20;70.10;;;;;;6100677;23;20026;-82
2023/12/05 07:34:13;;;;;;;63.88;23.92;;;-3.20;70.30;;;;;;6125794;23;20050;-81
2023/12/05 07:36:50;;;;;;;66.45;23.48;;;-3.20;70.40;;;;;;6122895;23;20034;-81
2023/12/05 07:39:20;;;;;;;59.63;21.45;;;-3.20;70.60;;;;;;6125772;23;20064;-82
2023/12/05 07:41:47;;;;;;;62.95;23.10;;;-3.10;70.20;;;;;;6127197;23;20368;-81
2023/12/05 07:44:19;;;;;;;61.15;23.30;;;-3.10;70.00;;;;;;6127365;23;20607;-82
2023/12/05 07:46:46;;;;;;;62.95;22.58;;;-3.10;69.90;;;;;;6127429;23;20018;-80
2023/12/05 07:49:20;;;;;;;66.03;24.08;;;-3.10;70.10;;;;;;6124771;23;20029;-82
2023/12/05 07:51:49;;;;;;;64.97;22.58;;;-3.00;70.20;;;;;;6100710;23;20025;-80
2023/12/05 07:54:19;;;;;;;56.65;21.75;;;-2.90;70.00;;;;;;6125848;23;20096;-82
2023/12/05 07:56:55;;;;;;;61.83;23.45;;;-3.00;69.20;;;;;;6126246;23;20090;-82
2023/12/05 08:00:07;;;;;;;;;;;;;;;;;;;;;
2023/12/05 08:04:07;;;;;;;;;;;;;;;;;;;;;
2023/12/05 08:07:23;;;;;;;;;;;;;;;;;;;;;
2023/12/05 08:10:42;;;;;;;;;;;;;;;;;;;;;
2023/12/05 08:14:07;;;;;;;51.17;20.88;;;-2.90;70.30;;;;;;6025547;23;20022;-81
2023/12/05 08:17:10;;;;;;;86.68;32.63;;;-3.00;69.80;;;;;;5962749;23;20028;-81
2023/12/05 08:20:11;;;;;;;79.03;30.35;;;-2.80;69.20;;;;;;6040175;23;20113;-81
2023/12/05 08:23:12;;;;;;;;;;;;;;;;;;;;;
2023/12/05 08:26:11;;;;;;;86.75;32.05;;;-2.80;68.80;;;;;;6040101;23;20031;-81
2023/12/05 08:28:44;;;;;;;96.95;32.50;;;-2.70;68.30;;;;;;6038704;23;20484;-80
2023/12/05 08:31:14;;;;;;;69.00;28.17;;;-2.60;68.30;;;;;;6015360;23;20035;-79
2023/12/05 08:33:45;;;;;;;62.20;26.00;;;-2.60;68.10;;;;;;6039387;23;20061;-79
2023/12/05 08:36:13;;;;;;;68.65;26.60;;;-2.50;67.90;;;;;;6037371;23;20035;-79
2023/12/05 08:38:44;;;;;;;65.28;26.73;;;-2.50;67.70;;;;;;6038629;23;20442;-80
2023/12/05 08:41:19;;;;;;;72.93;28.50;;;-2.60;67.20;;;;;;6124065;23;20053;-79
2023/12/05 08:43:49;;;;;;;75.72;31.23;;;-2.60;67.40;;;;;;6123029;23;20459;-81
2023/12/05 08:46:19;;;;;;;64.32;26.88;;;-2.50;67.40;;;;;;6124359;23;20526;-81
2023/12/05 08:48:49;;;;;;;64.40;28.80;;;-2.60;67.00;;;;;;6123313;23;20451;-80
2023/12/05 08:51:18;;;;;;;64.70;26.38;;;-2.60;67.20;;;;;;6098549;23;20033;-80
2023/12/05 08:53:45;;;;;;;54.00;23.35;;;-2.60;67.50;;;;;;6122658;23;20026;-78
2023/12/05 08:56:13;;;;;;;62.95;26.08;;;-2.60;67.00;;;;;;6098350;23;20026;-80
2023/12/05 08:58:46;;;;;;;62.13;26.60;;;-2.60;67.30;;;;;;6122473;23;20109;-80
2023/12/05 09:01:14;;;;;;;60.08;25.80;;;-2.60;67.00;;;;;;6122423;23;20022;-81
2023/12/05 09:03:42;;;;;;;50.60;22.83;;;-2.70;66.90;;;;;;6098237;23;20029;-80
2023/12/05 09:06:13;;;;;;;45.00;21.30;;;-2.70;67.20;;;;;;6124727;23;20030;-80
2023/12/05 09:08:43;;;;;;;45.38;21.50;;;-2.80;67.20;;;;;;6124423;23;20025;-80
2023/12/05 09:11:15;;;;;;;49.92;22.05;;;-2.60;67.50;;;;;;6097338;23;20127;-80
2023/12/05 09:13:45;;;;;;;51.25;21.95;;;-2.70;67.10;;;;;;6122196;23;20061;-79
2023/12/05 09:16:23;;;;;;;;;;;;;;;;;;;;;
2023/12/05 09:19:09;;;;;;;55.05;23.77;;;-2.50;66.50;;;;;;6123788;23;20021;-80
2023/12/05 09:21:52;;;;;;;61.50;26.77;;;-2.60;66.50;;;;;;6124630;23;20022;-81
2023/12/05 09:24:31;;;;;;;65.25;27.38;;;-2.50;66.60;;;;;;6125884;23;20048;-80
2023/12/05 09:30:43;;;;;;;67.40;29.08;;;-2.40;66.10;;;;;;6111632;23;20072;-80
2023/12/05 09:33:13;;;;;;;92.10;35.10;;;-2.40;65.80;;;;;;6124582;23;20026;-81
2023/12/05 09:35:47;;;;;;;98.13;39.30;;;-2.40;66.50;;;;;;6117108;23;20112;-81
2023/12/05 09:38:23;;;;;;;74.95;30.30;;;-2.30;65.70;;;;;;6124855;23;20467;-82
2023/12/05 09:41:18;;;;;;;76.68;31.27;;;-2.20;65.60;;;;;;6005519;23;20023;-82
2023/12/05 09:43:51;;;;;;;78.07;29.77;;;-2.30;65.00;;;;;;6154561;23;20045;-81
2023/12/05 09:46:24;;;;;;;66.28;29.35;;;-2.40;65.00;;;;;;6128697;23;20402;-80
2023/12/05 09:48:58;;;;;;;70.00;28.30;;;-2.60;65.30;;;;;;6154743;23;20024;-81
2023/12/05 09:51:27;;;;;;;74.53;30.83;;;-2.60;65.60;;;;;;6128859;23;20045;-80
2023/12/05 09:53:58;;;;;;;69.05;29.15;;;-2.60;65.80;;;;;;6155028;23;20027;-80
2023/12/05 09:56:26;;;;;;;73.75;31.08;;;-2.50;65.90;;;;;;6155708;23;20048;-81
2023/12/05 09:58:55;;;;;;;66.95;28.15;;;-2.40;65.70;;;;;;6155041;23;20053;-82
2023/12/05 10:01:25;;;;;;;74.35;29.05;;;-2.40;65.40;;;;;;6153896;23;20104;-82
2023/12/05 10:03:57;;;;;;;64.85;29.48;;;-2.40;65.30;;;;;;6155156;23;20032;-80
2023/12/05 10:06:26;;;;;;;73.53;32.45;;;-2.50;65.50;;;;;;6155696;23;20084;-83
2023/12/05 10:08:54;;;;;;;106.32;37.88;;;-2.50;65.40;;;;;;6154882;23;20030;-82
2023/12/05 10:11:28;;;;;;;81.07;33.45;;;-2.50;65.60;;;;;;6130866;23;20018;-84
2023/12/05 10:14:02;;;;;;;85.00;33.58;;;-2.40;65.20;;;;;;6157662;23;20021;-84
2023/12/05 10:16:31;;;;;;;85.13;30.83;;;-2.40;64.80;;;;;;6107145;23;20045;-84
2023/12/05 10:18:59;;;;;;;79.00;31.85;;;-2.40;64.70;;;;;;6154837;23;20018;-83
2023/12/05 10:21:30;;;;;;;79.88;33.95;;;-2.30;64.90;;;;;;6158035;23;20027;-83
2023/12/05 10:23:58;;;;;;;78.47;32.67;;;-2.40;64.50;;;;;;6155781;23;20026;-84
2023/12/05 10:26:49;;;;;;;74.75;30.67;;;-2.40;64.20;;;;;;6132658;23;20044;-83
2023/12/05 10:29:20;;;;;;;83.97;33.50;;;-2.50;63.90;;;;;;6131433;23;20100;-84
2023/12/05 10:36:23;;;;;;;67.53;30.65;;;-2.70;64.20;;;;;;5892411;24;20029;-82
2023/12/05 10:44:15;;;;;;;;;;;;;;;;;;;;;
2023/12/05 10:52:10;;;;;;;94.80;36.20;;;-2.60;63.40;;;;;;6052173;23;20101;-83
2023/12/05 10:56:04;;;;;;;68.47;27.08;;;-2.90;63.80;;;;;;5965788;24;20126;-81
2023/12/05 10:58:58;;;;;;;82.95;30.38;;;-2.80;63.50;;;;;;5896588;24;20029;-83
2023/12/05 11:06:52;;;;;;;;;;;;;;;;;;;;;
2023/12/05 11:19:16;;;;;;;96.03;32.22;;;-2.90;63.00;;;;;;5812422;24;20101;-83
2023/12/05 11:26:31;;;;;;;121.20;38.08;;;-3.10;63.00;;;;;;5794369;24;20025;-84
2023/12/05 11:30:28;;;;;;;77.15;26.45;;;-3.10;63.00;;;;;;5923959;24;20021;-82
2023/12/05 11:33:12;;;;;;;72.13;25.65;;;-3.10;63.20;;;;;;5928156;24;20020;-80
2023/12/05 11:35:54;;;;;;;65.15;23.58;;;-3.10;63.20;;;;;;6031750;23;20022;-83
2023/12/05 11:38:28;;;;;;;54.90;21.50;;;-3.20;62.80;;;;;;6022543;23;20356;-85
2023/12/05 11:41:25;;;;;;;50.53;19.13;;;-3.30;63.10;;;;;;6070673;23;20055;-83
2023/12/05 11:44:22;;;;;;;52.92;18.85;;;-3.40;63.30;;;;;;6097418;23;20079;-82
2023/12/05 11:46:53;;;;;;;57.17;20.20;;;-3.50;63.20;;;;;;6095149;23;20026;-81
2023/12/05 11:49:40;;;;;;;43.58;17.88;;;-3.60;63.50;;;;;;6096763;23;20022;-80
2023/12/05 11:52:12;;;;;;;62.03;22.63;;;-3.50;63.50;;;;;;6071492;23;20026;-84
2023/12/05 11:54:53;;;;;;;52.40;21.65;;;-3.50;63.10;;;;;;6072318;23;20050;-83
2023/12/05 11:57:27;;;;;;;52.53;20.15;;;-3.60;63.00;;;;;;6103455;23;20022;-82
2023/12/05 12:00:03;;;;;;;51.53;18.90;;;-3.60;63.20;;;;;;6047004;23;20477;-81
2023/12/05 12:02:57;;;;;;;57.90;20.42;;;-3.60;62.90;;;;;;6073963;23;20022;-81
2023/12/05 12:05:40;;;;;;;104.25;34.53;;;-3.60;63.50;;;;;;6097210;23;20028;-83
2023/12/05 12:08:19;;;;;;;105.30;37.22;;;-3.50;63.10;;;;;;6100325;23;20018;-83
2023/12/05 12:11:06;;;;;;;154.88;48.50;;;-3.40;62.80;;;;;;6073838;23;20019;-83
2023/12/05 12:13:39;;;;;;;71.60;26.90;;;-3.50;62.50;;;;;;6096899;23;20026;-84
2023/12/05 12:16:16;;;;;;;118.95;36.47;;;-3.40;62.80;;;;;;6070516;23;20474;-83
2023/12/05 12:18:48;;;;;;;93.20;32.15;;;-3.40;62.70;;;;;;6093517;23;20090;-83
2023/12/05 12:21:16;;;;;;;48.33;19.75;;;-3.40;62.80;;;;;;6066994;23;20050;-80
2023/12/05 12:24:03;;;;;;;38.00;16.40;;;-3.50;62.60;;;;;;6066606;23;20062;-82
2023/12/05 12:26:57;;;;;;;49.30;19.40;;;-3.50;62.20;;;;;;6043611;23;20082;-82
2023/12/05 12:29:51;;;;;;;50.95;21.42;;;-3.70;62.60;;;;;;6094400;23;20030;-82
2023/12/05 12:32:35;;;;;;;116.97;39.30;;;-3.70;62.60;;;;;;6066930;23;20109;-81
2023/12/05 12:35:14;;;;;;;103.53;35.08;;;-3.70;62.80;;;;;;6067439;23;20030;-83
2023/12/05 12:37:48;;;;;;;94.57;32.92;;;-3.70;62.40;;;;;;6091845;23;20026;-81
2023/12/05 12:40:18;;;;;;;69.22;27.58;;;-3.70;62.60;;;;;;6066439;23;20451;-81
2023/12/05 12:42:50;;;;;;;74.15;27.13;;;-3.80;62.80;;;;;;6058511;23;20023;-81
2023/12/05 12:45:20;;;;;;;67.38;27.90;;;-3.80;62.90;;;;;;6010502;23;20058;-82
2023/12/05 12:47:48;;;;;;;74.10;30.33;;;-3.80;62.60;;;;;;6037967;23;20026;-82
2023/12/05 12:50:51;;;;;;;72.90;27.27;;;-3.60;62.60;;;;;;6035015;23;20023;-83
2023/12/05 12:53:20;;;;;;;92.72;35.60;;;-3.60;62.50;;;;;;6013460;23;20023;-82
2023/12/05 12:55:51;;;;;;;107.78;38.53;;;-3.60;62.30;;;;;;5990124;23;20134;-83
2023/12/05 12:58:26;;;;;;;148.25;49.50;;;-3.60;62.20;;;;;;5990451;23;20023;-83
2023/12/05 13:00:56;;;;;;;138.00;47.90;;;-3.60;62.50;;;;;;6038544;23;20118;-82
2023/12/05 13:03:26;;;;;;;121.00;42.58;;;-3.60;62.50;;;;;;6012603;23;20023;-82
2023/12/05 13:05:55;;;;;;;93.88;35.95;;;-3.70;62.20;;;;;;6037519;23;20110;-81
2023/12/05 13:08:22;;;;;;;68.82;26.17;;;-3.70;62.30;;;;;;6012590;23;20345;-81
2023/12/05 13:10:50;;;;;;;49.35;19.92;;;-3.70;62.60;;;;;;6038912;23;20033;-82
2023/12/05 13:13:18;;;;;;;44.67;18.80;;;-3.80;62.50;;;;;;6038504;23;20019;-82
2023/12/05 13:15:46;;;;;;;62.40;25.23;;;-3.90;62.50;;;;;;6012858;23;20096;-82
2023/12/05 13:18:20;;;;;;;46.60;19.08;;;-3.90;63.30;;;;;;6035582;23;20023;-81
2023/12/05 13:20:51;;;;;;;45.35;20.27;;;-3.90;63.00;;;;;;6038056;23;20102;-82
2023/12/05 13:23:19;;;;;;;42.55;18.92;;;-3.80;63.00;;;;;;6012232;23;20060;-82
2023/12/05 13:25:51;;;;;;;45.03;20.60;;;-3.80;63.20;;;;;;6037321;23;20027;-79
2023/12/05 13:28:19;;;;;;;40.33;18.63;;;-3.70;63.40;;;;;;6012091;23;20364;-81
2023/12/05 13:30:47;;;;;;;34.00;15.40;;;-3.80;62.60;;;;;;6037252;23;20585;-79
2023/12/05 13:33:17;;;;;;;49.17;17.83;;;-3.70;62.40;;;;;;6037063;23;20586;-80
2023/12/05 13:35:45;;;;;;;36.25;16.95;;;-3.90;62.40;;;;;;6011810;23;20385;-80
2023/12/05 13:38:28;;;;;;;35.28;17.27;;;-3.90;62.70;;;;;;6014158;23;20027;-78
2023/12/05 13:41:03;;;;;;;;;;;-4.00;62.80;;;;;;6019046;23;20027;-81
2023/12/05 13:43:31;;;;;;;35.50;17.40;;;-4.10;62.70;;;;;;6069816;23;20422;-79
2023/12/05 13:45:59;;;;;;;36.33;18.15;;;-4.10;63.30;;;;;;6066417;23;20022;-77
2023/12/05 13:48:28;;;;;;;35.03;15.63;;;-4.20;63.50;;;;;;6065140;23;20052;-77
2023/12/05 13:50:58;;;;;;;40.15;19.00;;;-4.20;63.80;;;;;;6065282;23;20031;-77
2023/12/05 13:53:26;;;;;;;38.53;17.92;;;-4.10;63.80;;;;;;6064690;23;20050;-78
2023/12/05 13:55:53;;;;;;;43.13;17.63;;;-4.10;63.50;;;;;;6065603;23;20380;-77
2023/12/05 13:58:21;;;;;;;41.47;18.42;;;-4.10;63.30;;;;;;6063970;23;20095;-77
2023/12/05 14:00:49;;;;;;;32.58;17.15;;;-4.10;63.50;;;;;;6067439;23;20023;-77
2023/12/05 14:03:18;;;;;;;36.15;16.05;;;-4.20;63.50;;;;;;6042253;23;20058;-78
2023/12/05 14:05:47;;;;;;;40.05;16.02;;;-4.20;63.80;;;;;;6067662;23;20086;-77
2023/12/05 14:08:15;;;;;;;42.10;16.52;;;-4.20;63.70;;;;;;6040979;23;20027;-77
2023/12/05 14:10:43;;;;;;;40.83;17.52;;;-4.20;63.40;;;;;;6066641;23;20439;-75
2023/12/05 14:13:11;;;;;;;34.03;16.65;;;-4.30;63.50;;;;;;6040320;23;20046;-78
2023/12/05 14:15:39;;;;;;;33.90;15.60;;;-4.20;63.60;;;;;;6067757;23;20074;-76
2023/12/05 14:18:08;;;;;;;35.25;15.88;;;-4.10;63.60;;;;;;6065750;23;20027;-80
2023/12/05 14:20:38;;;;;;;34.00;15.90;;;-4.10;63.50;;;;;;6066230;23;20086;-77
2023/12/05 14:23:07;;;;;;;31.85;13.98;;;-4.10;63.40;;;;;;6060455;23;20038;-76
2023/12/05 14:25:40;;;;;;;32.38;14.13;;;-4.20;63.30;;;;;;6061903;23;20355;-79
2023/12/05 14:28:10;;;;;;;31.27;14.27;;;-4.20;63.10;;;;;;6061856;23;20352;-78
2023/12/05 14:30:39;;;;;;;31.27;13.85;;;-4.20;63.20;;;;;;6036914;23;20023;-80
2023/12/05 14:33:16;;;;;;;29.08;13.00;;;-4.30;63.20;;;;;;6060040;23;20022;-79
2023/12/05 14:35:44;;;;;;;27.80;12.02;;;-4.40;63.20;;;;;;6061152;23;20054;-80
2023/12/05 14:38:16;;;;;;;23.63;10.95;;;-4.40;63.40;;;;;;6060390;23;20113;-79
2023/12/05 14:41:44;;;;;;;;;;;;;;;;;;;;;
2023/12/05 14:44:35;;;;;;;25.95;12.35;;;-4.50;63.40;;;;;;6063049;23;20042;-82
2023/12/05 14:47:27;;;;;;;25.77;12.65;;;-4.50;63.30;;;;;;6060689;23;20027;-79
2023/12/05 14:50:04;;;;;;;30.33;12.63;;;-4.60;63.60;;;;;;6056492;23;20023;-81
2023/12/05 14:52:42;;;;;;;29.40;12.73;;;-4.50;63.60;;;;;;6063195;23;20029;-83
2023/12/05 14:59:33;;;;;;;28.30;12.38;;;-4.50;62.90;;;;;;5985703;23;20375;-80
2023/12/05 15:02:32;;;;;;;29.45;12.55;;;-4.60;62.90;;;;;;5941461;24;20104;-78
2023/12/05 15:05:11;;;;;;;32.60;14.52;;;-4.70;62.90;;;;;;5920236;23;20097;-77
2023/12/05 15:07:58;;;;;;;52.65;16.65;;;-4.70;62.90;;;;;;6028144;23;20387;-79
2023/12/05 15:10:38;;;;;;;36.00;16.30;;;-4.70;63.00;;;;;;6001730;23;20029;-79
2023/12/05 15:13:12;;;;;;;55.92;19.75;;;-4.80;63.10;;;;;;6039679;23;20114;-78
2023/12/05 15:15:46;;;;;;;51.58;19.52;;;-4.80;63.30;;;;;;6032811;23;20026;-78
2023/12/05 15:18:16;;;;;;;51.58;17.63;;;-4.80;63.40;;;;;;6032293;23;20031;-77